createdAt,value
2023-06-09T00:02:20.501Z,20.22
2023-06-09T00:04:47.154Z,20.20
2023-06-09T00:07:17.223Z,20.15
2023-06-09T00:09:47.675Z,20.12
2023-06-09T00:12:15.174Z,20.10
2023-06-09T00:14:42.814Z,20.07
2023-06-09T00:17:09.656Z,20.03
2023-06-09T00:19:37.081Z,19.99
2023-06-09T00:22:04.549Z,19.94
2023-06-09T00:24:32.219Z,19.91
2023-06-09T00:26:58.791Z,19.88
2023-06-09T00:29:25.748Z,19.89
2023-06-09T00:31:52.432Z,19.88
2023-06-09T00:34:19.109Z,19.84
2023-06-09T00:36:45.708Z,19.80
2023-06-09T00:39:12.268Z,19.75
2023-06-09T00:41:39.218Z,19.70
2023-06-09T00:44:06.127Z,19.68
2023-06-09T00:46:33.590Z,19.64
2023-06-09T00:49:00.141Z,19.60
2023-06-09T00:51:26.806Z,19.54
2023-06-09T00:53:53.366Z,19.45
2023-06-09T00:56:20.910Z,19.39
2023-06-09T00:58:47.452Z,19.32
2023-06-09T01:01:14.463Z,19.23
2023-06-09T01:03:41.212Z,19.19
2023-06-09T01:06:28.034Z,19.10
2023-06-09T01:09:01.160Z,19.08
2023-06-09T01:11:34.599Z,19.07
2023-06-09T01:14:07.013Z,19.06
2023-06-09T01:16:40.306Z,19.07
2023-06-09T01:19:09.764Z,19.05
2023-06-09T01:21:42.211Z,19.03
2023-06-09T01:24:16.398Z,19.03
2023-06-09T01:26:43.468Z,19.03
2023-06-09T01:29:10.081Z,19.03
2023-06-09T01:31:36.762Z,19.01
2023-06-09T01:34:03.616Z,18.99
2023-06-09T01:36:30.148Z,18.95
2023-06-09T01:38:57.441Z,18.95
2023-06-09T01:41:24.833Z,18.95
2023-06-09T01:43:51.634Z,18.93
2023-06-09T01:46:18.215Z,18.90
2023-06-09T01:49:00.049Z,18.87
2023-06-09T01:51:56.140Z,18.84
2023-06-09T01:54:31.506Z,18.81
2023-06-09T01:56:59.267Z,18.82
2023-06-09T01:59:30.287Z,18.82
2023-06-09T02:01:57.380Z,18.83
2023-06-09T02:04:24.472Z,18.79
2023-06-09T02:06:50.999Z,18.76
2023-06-09T02:09:17.800Z,18.76
2023-06-09T02:11:50.164Z,18.77
2023-06-09T02:14:16.822Z,18.76
2023-06-09T02:16:43.450Z,18.73
2023-06-09T02:19:09.969Z,18.68
2023-06-09T02:21:36.668Z,18.63
2023-06-09T02:24:03.229Z,18.62
2023-06-09T02:26:29.755Z,18.58
2023-06-09T02:28:56.492Z,18.53
2023-06-09T02:31:23.156Z,18.49
2023-06-09T02:33:49.679Z,18.43
2023-06-09T02:36:17.506Z,18.40
2023-06-09T02:38:46.226Z,18.38
2023-06-09T02:41:12.734Z,18.36
2023-06-09T02:43:39.166Z,18.33
2023-06-09T02:46:05.854Z,18.35
2023-06-09T02:48:32.397Z,18.34
2023-06-09T02:50:58.941Z,18.33
2023-06-09T02:53:25.661Z,18.29
2023-06-09T02:55:52.334Z,18.26
2023-06-09T02:58:25.770Z,18.23
2023-06-09T03:00:53.570Z,18.24
2023-06-09T03:03:20.860Z,18.23
2023-06-09T03:05:48.972Z,18.23
2023-06-09T03:08:16.153Z,18.23
2023-06-09T03:10:43.809Z,18.25
2023-06-09T03:13:13.159Z,18.22
2023-06-09T03:15:45.264Z,18.21
2023-06-09T03:18:13.014Z,18.16
2023-06-09T03:20:39.856Z,18.13
2023-06-09T03:23:09.970Z,18.13
2023-06-09T03:25:38.379Z,18.14
2023-06-09T03:28:05.088Z,18.13
2023-06-09T03:30:34.804Z,18.13
2023-06-09T03:33:02.162Z,18.08
2023-06-09T03:35:28.796Z,18.02
2023-06-09T03:37:55.696Z,17.97
2023-06-09T03:40:22.530Z,17.91
2023-06-09T03:42:49.150Z,17.87
2023-06-09T03:45:15.998Z,17.82
2023-06-09T03:47:42.671Z,17.76
2023-06-09T03:50:10.071Z,17.75
2023-06-09T03:52:40.858Z,17.75
2023-06-09T03:55:08.456Z,17.78
2023-06-09T03:57:36.606Z,17.80
2023-06-09T04:00:04.812Z,17.85
2023-06-09T04:02:32.103Z,17.88
2023-06-09T04:04:58.782Z,17.94
2023-06-09T04:07:25.975Z,17.97
2023-06-09T04:09:52.762Z,18.00
2023-06-09T04:12:19.346Z,18.04
2023-06-09T04:14:46.972Z,18.07
2023-06-09T04:17:13.772Z,18.11
2023-06-09T04:19:40.774Z,18.15
2023-06-09T04:22:08.505Z,18.20
2023-06-09T04:24:35.633Z,18.27
2023-06-09T04:27:04.246Z,18.33
2023-06-09T04:29:34.113Z,18.36
2023-06-09T04:32:01.340Z,18.44
2023-06-09T04:34:30.260Z,18.48
2023-06-09T04:36:57.290Z,18.55
2023-06-09T04:39:29.627Z,18.64
2023-06-09T04:41:56.863Z,18.69
2023-06-09T04:44:25.659Z,18.75
2023-06-09T04:46:55.346Z,18.80
2023-06-09T04:49:24.811Z,18.87
2023-06-09T04:51:52.184Z,18.94
2023-06-09T04:54:29.610Z,19.01
2023-06-09T04:56:59.401Z,19.04
2023-06-09T04:59:26.160Z,19.09
2023-06-09T05:01:54.054Z,19.11
2023-06-09T05:04:20.969Z,19.17
2023-06-09T05:06:47.906Z,19.23
2023-06-09T05:09:14.846Z,19.28
2023-06-09T05:11:42.152Z,19.30
2023-06-09T05:14:09.121Z,19.34
2023-06-09T05:16:36.345Z,19.40
2023-06-09T05:19:05.683Z,19.44
2023-06-09T05:21:32.316Z,19.49
2023-06-09T05:23:59.154Z,19.58
2023-06-09T05:26:26.785Z,19.63
2023-06-09T05:28:53.908Z,19.61
2023-06-09T05:31:20.544Z,19.58
2023-06-09T05:33:47.741Z,19.57
2023-06-09T05:36:14.393Z,19.60
2023-06-09T05:38:46.918Z,19.62
2023-06-09T05:41:15.811Z,19.65
2023-06-09T05:43:42.488Z,19.70
2023-06-09T05:46:08.989Z,19.26
2023-06-09T05:48:35.538Z,19.81
2023-06-09T05:51:01.996Z,19.88
2023-06-09T05:53:28.732Z,19.98
2023-06-09T05:55:55.442Z,20.08
2023-06-09T05:58:21.950Z,20.17
2023-06-09T06:00:48.581Z,20.25
2023-06-09T06:03:15.456Z,20.33
2023-06-09T06:05:42.119Z,20.43
2023-06-09T06:08:08.640Z,20.48
2023-06-09T06:10:35.207Z,20.55
2023-06-09T06:13:03.125Z,20.66
2023-06-09T06:15:29.632Z,20.79
2023-06-09T06:17:56.229Z,20.93
2023-06-09T06:20:22.813Z,21.04
2023-06-09T06:22:49.957Z,21.22
2023-06-09T06:25:16.475Z,21.39
2023-06-09T06:27:46.105Z,21.57
2023-06-09T06:30:14.011Z,21.71
2023-06-09T06:32:48.669Z,21.82
2023-06-09T06:35:21.805Z,21.98
2023-06-09T06:37:48.361Z,22.11
2023-06-09T06:40:15.071Z,22.22
2023-06-09T06:42:41.547Z,22.36
2023-06-09T06:45:15.159Z,22.48
2023-06-09T06:47:42.752Z,22.56
2023-06-09T06:50:09.968Z,22.60
2023-06-09T06:52:36.975Z,22.68
2023-06-09T06:55:03.568Z,22.78
2023-06-09T06:57:30.069Z,22.85
2023-06-09T07:00:00.086Z,22.96
2023-06-09T07:02:30.476Z,23.05
2023-06-09T07:04:57.949Z,23.21
2023-06-09T07:07:27.247Z,23.30
2023-06-09T07:09:54.173Z,23.35
2023-06-09T07:12:20.821Z,23.42
2023-06-09T07:14:47.402Z,23.48
2023-06-09T07:17:14.047Z,23.61
2023-06-09T07:19:40.763Z,23.70
2023-06-09T07:22:07.351Z,23.75
2023-06-09T07:24:34.029Z,23.87
2023-06-09T07:27:00.507Z,23.99
2023-06-09T07:29:27.067Z,24.08
2023-06-09T07:31:53.733Z,24.07
2023-06-09T07:34:20.304Z,24.16
2023-06-09T07:36:51.234Z,24.24
2023-06-09T07:39:18.284Z,24.40
2023-06-09T07:41:44.812Z,24.47
2023-06-09T07:44:11.252Z,24.55
2023-06-09T07:46:37.789Z,24.64
2023-06-09T07:49:04.596Z,24.72
2023-06-09T07:51:31.716Z,24.77
2023-06-09T07:53:58.245Z,24.89
2023-06-09T07:56:24.738Z,25.04
2023-06-09T07:58:51.646Z,25.21
2023-06-09T08:01:18.202Z,25.41
2023-06-09T08:03:44.890Z,25.58
2023-06-09T08:06:11.413Z,25.77
2023-06-09T08:08:38.509Z,25.92
2023-06-09T08:11:05.054Z,26.04
2023-06-09T08:13:31.739Z,26.11
2023-06-09T08:15:58.536Z,26.19
2023-06-09T08:18:25.140Z,26.30
2023-06-09T08:20:52.542Z,26.41
2023-06-09T08:23:21.843Z,26.57
2023-06-09T08:25:48.882Z,26.71
2023-06-09T08:28:15.663Z,26.71
2023-06-09T08:30:42.156Z,26.80
2023-06-09T08:33:09.177Z,26.79
2023-06-09T08:35:35.765Z,26.87
2023-06-09T08:38:02.450Z,26.92
2023-06-09T08:40:28.938Z,27.01
2023-06-09T08:42:56.685Z,27.19
2023-06-09T08:45:23.846Z,27.34
2023-06-09T08:47:51.139Z,27.51
2023-06-09T08:50:19.534Z,27.73
2023-06-09T08:52:46.057Z,27.84
2023-06-09T08:55:13.535Z,27.94
2023-06-09T08:57:42.413Z,27.99
2023-06-09T09:00:11.114Z,28.11
2023-06-09T09:02:37.824Z,28.19
2023-06-09T09:05:04.501Z,28.11
2023-06-09T09:07:31.286Z,28.15
2023-06-09T09:09:59.795Z,28.23
2023-06-09T09:12:26.383Z,28.40
2023-06-09T09:14:52.845Z,28.53
2023-06-09T09:17:19.450Z,28.66
2023-06-09T09:19:46.980Z,28.81
2023-06-09T09:22:13.811Z,28.88
2023-06-09T09:24:46.844Z,28.97
2023-06-09T09:27:17.863Z,29.04
2023-06-09T09:29:45.100Z,28.98
2023-06-09T09:32:11.588Z,29.06
2023-06-09T09:34:41.012Z,29.13
2023-06-09T09:37:11.173Z,29.15
2023-06-09T09:39:47.657Z,29.36
2023-06-09T09:42:14.165Z,29.48
2023-06-09T09:44:43.588Z,29.43
2023-06-09T09:47:11.435Z,29.30
2023-06-09T09:49:37.961Z,29.22
2023-06-09T09:52:06.628Z,29.24
2023-06-09T09:54:33.102Z,29.34
2023-06-09T09:56:59.896Z,29.42
2023-06-09T09:59:27.063Z,29.47
2023-06-09T10:01:54.858Z,29.48
2023-06-09T10:04:25.158Z,29.58
2023-06-09T10:06:57.724Z,29.74
2023-06-09T10:09:24.587Z,29.78
2023-06-09T10:11:52.765Z,29.84
2023-06-09T10:14:19.681Z,29.90
2023-06-09T10:16:46.383Z,30.02
2023-06-09T10:19:13.016Z,30.02
2023-06-09T10:21:40.515Z,30.10
2023-06-09T10:24:08.103Z,30.06
2023-06-09T10:26:35.448Z,30.08
2023-06-09T10:29:02.076Z,30.10
2023-06-09T10:31:30.729Z,30.14
2023-06-09T10:33:57.276Z,30.10
2023-06-09T10:36:23.959Z,30.19
2023-06-09T10:38:54.734Z,30.31
2023-06-09T10:41:32.778Z,30.32
2023-06-09T10:44:19.187Z,30.33
2023-06-09T10:46:47.034Z,30.46
2023-06-09T10:49:42.127Z,30.48
2023-06-09T10:52:10.009Z,30.57
2023-06-09T10:54:36.959Z,30.43
2023-06-09T10:57:08.242Z,30.41
2023-06-09T10:59:37.813Z,30.61
2023-06-09T11:02:07.366Z,30.81
2023-06-09T11:04:46.439Z,31.00
2023-06-09T11:07:16.318Z,30.97
2023-06-09T11:09:52.193Z,30.88
2023-06-09T11:12:28.297Z,30.53
2023-06-09T11:15:01.276Z,30.33
2023-06-09T11:17:35.112Z,30.35
2023-06-09T11:20:11.272Z,30.38
2023-06-09T11:22:55.537Z,30.49
2023-06-09T11:25:23.424Z,30.07
2023-06-09T11:27:56.158Z,30.26
2023-06-09T11:30:23.253Z,30.34
2023-06-09T11:32:53.493Z,30.44
2023-06-09T11:35:32.276Z,30.57
2023-06-09T11:37:58.933Z,30.59
2023-06-09T11:40:26.008Z,30.60
2023-06-09T11:42:52.550Z,30.75
2023-06-09T11:45:19.157Z,30.85
2023-06-09T11:47:46.440Z,30.81
2023-06-09T11:50:13.912Z,30.97
2023-06-09T11:52:41.579Z,30.97
2023-06-09T11:55:08.879Z,30.98
2023-06-09T11:57:35.829Z,31.23
2023-06-09T12:00:15.712Z,31.37
2023-06-09T12:02:42.871Z,31.27
2023-06-09T12:05:10.227Z,31.42
2023-06-09T12:07:37.061Z,31.57
2023-06-09T12:10:04.644Z,31.62
2023-06-09T12:12:31.312Z,31.73
2023-06-09T12:14:57.836Z,31.84
2023-06-09T12:17:24.556Z,31.78
2023-06-09T12:19:52.505Z,31.96
2023-06-09T12:22:19.173Z,32.05
2023-06-09T12:24:45.847Z,32.13
2023-06-09T12:27:12.967Z,32.07
2023-06-09T12:29:40.159Z,31.90
2023-06-09T12:32:07.493Z,31.91
2023-06-09T12:34:34.072Z,31.80
2023-06-09T12:37:00.563Z,31.97
2023-06-09T12:39:31.329Z,32.38
2023-06-09T12:41:57.998Z,32.34
2023-06-09T12:44:27.530Z,32.37
2023-06-09T12:46:57.201Z,32.38
2023-06-09T12:49:33.288Z,32.50
2023-06-09T12:52:00.366Z,32.54
2023-06-09T12:54:28.028Z,32.52
2023-06-09T12:56:55.380Z,32.67
2023-06-09T12:59:21.918Z,32.86
2023-06-09T13:01:48.889Z,33.06
2023-06-09T13:04:16.868Z,33.18
2023-06-09T13:06:43.916Z,33.26
2023-06-09T13:09:10.488Z,33.14
2023-06-09T13:11:37.083Z,33.02
2023-06-09T13:14:03.709Z,33.18
2023-06-09T13:16:30.841Z,33.31
2023-06-09T13:18:57.328Z,33.41
2023-06-09T13:21:34.802Z,33.56
2023-06-09T13:24:09.448Z,33.49
2023-06-09T13:26:36.144Z,33.68
2023-06-09T13:29:02.677Z,33.90
2023-06-09T13:31:29.187Z,33.94
2023-06-09T13:33:55.702Z,33.48
2023-06-09T13:36:22.245Z,33.08
2023-06-09T13:38:48.779Z,33.08
2023-06-09T13:41:16.213Z,33.17
2023-06-09T13:43:42.914Z,33.23
2023-06-09T13:46:09.442Z,33.42
2023-06-09T13:48:36.336Z,33.50
2023-06-09T13:51:03.226Z,32.91
2023-06-09T13:53:29.830Z,32.38
2023-06-09T13:55:56.460Z,32.23
2023-06-09T13:58:23.260Z,32.49
2023-06-09T14:00:49.908Z,32.78
2023-06-09T14:03:16.803Z,32.91
2023-06-09T14:05:44.364Z,33.10
2023-06-09T14:08:11.133Z,33.33
2023-06-09T14:10:37.619Z,33.21
2023-06-09T14:13:04.536Z,33.06
2023-06-09T14:15:31.238Z,32.98
2023-06-09T14:17:58.364Z,32.84
2023-06-09T14:20:27.299Z,32.72
2023-06-09T14:22:53.932Z,32.76
2023-06-09T14:25:22.673Z,32.74
2023-06-09T14:27:50.363Z,32.62
2023-06-09T14:30:19.158Z,32.42
2023-06-09T14:32:48.412Z,32.29
2023-06-09T14:35:23.431Z,32.26
2023-06-09T14:37:54.104Z,32.22
2023-06-09T14:40:21.312Z,32.05
2023-06-09T14:42:50.151Z,32.05
2023-06-09T14:45:21.611Z,32.13
2023-06-09T14:47:49.708Z,32.21
2023-06-09T14:50:23.354Z,31.78
2023-06-09T14:52:53.035Z,32.02
2023-06-09T14:55:24.068Z,31.89
2023-06-09T14:57:51.450Z,31.89
2023-06-09T15:00:19.001Z,31.86
2023-06-09T15:02:45.596Z,31.92
2023-06-09T15:05:12.257Z,31.96
2023-06-09T15:07:38.939Z,31.95
2023-06-09T15:10:06.012Z,31.91
2023-06-09T15:12:32.860Z,31.94
2023-06-09T15:15:01.531Z,31.99
2023-06-09T15:17:28.197Z,31.85
2023-06-09T15:19:54.694Z,31.63
2023-06-09T15:24:47.991Z,31.26
2023-06-09T15:27:14.558Z,31.17
2023-06-09T15:29:41.131Z,31.06
2023-06-09T15:32:07.853Z,30.92
2023-06-09T15:34:34.362Z,30.83
2023-06-09T15:37:00.878Z,30.81
2023-06-09T15:39:27.637Z,30.73
2023-06-09T15:41:54.119Z,30.61
2023-06-09T15:44:20.812Z,30.59
2023-06-09T15:46:47.439Z,30.52
2023-06-09T15:49:14.018Z,30.36
2023-06-09T15:51:40.504Z,30.33
2023-06-09T15:54:07.206Z,30.21
2023-06-09T15:56:33.969Z,30.19
2023-06-09T15:59:00.434Z,30.24
2023-06-09T16:01:27.496Z,30.25
2023-06-09T16:03:54.190Z,30.26
2023-06-09T16:06:21.316Z,30.18
2023-06-09T16:08:47.908Z,30.15
2023-06-09T16:11:14.414Z,30.15
2023-06-09T16:13:41.815Z,30.08
2023-06-09T16:16:08.486Z,30.03
2023-06-09T16:18:35.086Z,30.04
2023-06-09T16:21:01.614Z,30.03
2023-06-09T16:23:28.115Z,30.06
2023-06-09T16:25:54.656Z,30.04
2023-06-09T16:28:21.224Z,29.99
2023-06-09T16:30:47.833Z,29.96
2023-06-09T16:33:14.496Z,29.95
2023-06-09T16:35:41.100Z,29.66
2023-06-09T16:38:07.750Z,30.03
2023-06-09T16:40:34.358Z,30.06
2023-06-09T16:43:00.860Z,30.04
2023-06-09T16:45:27.774Z,29.97
2023-06-09T16:47:54.383Z,29.86
2023-06-09T16:50:20.961Z,29.81
2023-06-09T16:52:47.409Z,29.74
2023-06-09T16:55:13.937Z,29.70
2023-06-09T16:57:40.480Z,29.69
2023-06-09T17:00:07.499Z,29.64
2023-06-09T17:02:34.277Z,29.64
2023-06-09T17:05:00.876Z,29.64
2023-06-09T17:07:32.347Z,29.60
2023-06-09T17:09:58.963Z,29.54
2023-06-09T17:12:25.798Z,29.51
2023-06-09T17:14:52.348Z,29.49
2023-06-09T17:17:18.825Z,29.48
2023-06-09T17:19:46.423Z,29.41
2023-06-09T17:22:13.110Z,29.32
2023-06-09T17:24:39.576Z,29.28
2023-06-09T17:27:07.075Z,29.27
2023-06-09T17:29:33.629Z,29.26
2023-06-09T17:32:00.211Z,29.25
2023-06-09T17:34:26.794Z,29.24
2023-06-09T17:36:53.274Z,29.24
2023-06-09T17:39:19.855Z,29.17
2023-06-09T17:41:46.380Z,29.12
2023-06-09T17:44:12.973Z,29.10
2023-06-09T17:46:39.584Z,29.09
2023-06-09T17:49:06.064Z,29.02
2023-06-09T17:51:33.522Z,29.03
2023-06-09T17:54:00.416Z,29.03
2023-06-09T17:56:27.698Z,29.04
2023-06-09T17:58:54.168Z,28.96
2023-06-09T18:01:20.962Z,28.87
2023-06-09T18:03:47.693Z,28.77
2023-06-09T18:06:14.253Z,28.64
2023-06-09T18:08:40.746Z,28.60
2023-06-09T18:11:07.336Z,28.53
2023-06-09T18:13:33.882Z,28.50
2023-06-09T18:16:00.494Z,28.44
2023-06-09T18:18:27.059Z,28.38
2023-06-09T18:20:53.619Z,28.32
2023-06-09T18:23:20.268Z,28.28
2023-06-09T18:25:47.543Z,28.23
2023-06-09T18:28:14.288Z,28.18
2023-06-09T18:30:40.770Z,28.12
2023-06-09T18:33:07.359Z,28.08
2023-06-09T18:35:33.994Z,28.06
2023-06-09T18:38:00.515Z,28.03
2023-06-09T18:40:27.003Z,27.95
2023-06-09T18:42:53.584Z,27.89
2023-06-09T18:45:20.449Z,27.85
2023-06-09T18:47:47.327Z,27.82
2023-06-09T18:50:13.950Z,27.82
2023-06-09T18:52:40.536Z,27.79
2023-06-09T18:55:07.604Z,27.76
2023-06-09T18:57:38.045Z,27.74
2023-06-09T19:00:10.178Z,27.71
2023-06-09T19:02:36.834Z,27.70
2023-06-09T19:05:04.066Z,27.70
2023-06-09T19:07:30.597Z,27.68
2023-06-09T19:09:57.129Z,27.65
2023-06-09T19:12:23.857Z,27.63
2023-06-09T19:14:51.050Z,27.63
2023-06-09T19:17:17.734Z,27.60
2023-06-09T19:19:44.432Z,27.51
2023-06-09T19:22:10.938Z,27.41
2023-06-09T19:24:37.649Z,27.33
2023-06-09T19:27:04.211Z,27.31
2023-06-09T19:29:31.022Z,27.30
2023-06-09T19:31:57.503Z,27.27
2023-06-09T19:34:24.033Z,27.26
2023-06-09T19:36:51.226Z,27.21
2023-06-09T19:39:17.861Z,27.18
2023-06-09T19:41:44.627Z,27.14
2023-06-09T19:44:11.318Z,27.05
2023-06-09T19:46:38.024Z,27.00
2023-06-09T19:49:06.430Z,26.94
2023-06-09T19:51:33.011Z,26.90
2023-06-09T19:54:00.311Z,26.86
2023-06-09T19:56:26.851Z,26.79
2023-06-09T19:58:53.318Z,26.75
2023-06-09T20:01:19.986Z,26.69
2023-06-09T20:03:46.584Z,26.62
2023-06-09T20:06:13.203Z,26.57
2023-06-09T20:08:39.711Z,26.53
2023-06-09T20:11:06.159Z,26.48
2023-06-09T20:13:32.680Z,26.42
2023-06-09T20:16:00.247Z,26.37
2023-06-09T20:18:26.880Z,26.34
2023-06-09T20:20:53.628Z,26.30
2023-06-09T20:23:24.649Z,26.26
2023-06-09T20:25:51.395Z,26.20
2023-06-09T20:28:17.901Z,26.16
2023-06-09T20:30:44.407Z,26.13
2023-06-09T20:33:11.041Z,26.09
2023-06-09T20:35:37.599Z,26.06
2023-06-09T20:38:04.171Z,26.02
2023-06-09T20:40:31.107Z,25.97
2023-06-09T20:42:57.701Z,25.90
2023-06-09T20:45:25.015Z,25.86
2023-06-09T20:47:52.294Z,25.81
2023-06-09T20:50:19.143Z,25.77
2023-06-09T20:52:47.806Z,25.70
2023-06-09T20:55:15.127Z,25.64
2023-06-09T20:57:41.750Z,25.56
2023-06-09T21:00:08.676Z,25.48
2023-06-09T21:02:36.546Z,25.43
2023-06-09T21:05:04.409Z,25.35
2023-06-09T21:07:31.451Z,25.29
2023-06-09T21:09:58.093Z,25.25
2023-06-09T21:12:25.159Z,25.19
2023-06-09T21:14:51.728Z,25.14
2023-06-09T21:17:18.238Z,25.06
2023-06-09T21:19:44.909Z,24.99
2023-06-09T21:22:11.567Z,24.91
2023-06-09T21:24:38.060Z,24.83
2023-06-09T21:27:04.881Z,24.78
2023-06-09T21:29:31.393Z,24.74
2023-06-09T21:31:57.963Z,24.72
2023-06-09T21:34:24.508Z,24.72
2023-06-09T21:36:51.143Z,24.69
2023-06-09T21:39:17.758Z,24.65
2023-06-09T21:41:44.266Z,24.62
2023-06-09T21:44:10.809Z,24.59
2023-06-09T21:46:37.336Z,24.57
2023-06-09T21:49:03.866Z,24.54
2023-06-09T21:51:30.619Z,24.50
2023-06-09T21:53:57.142Z,24.45
2023-06-09T21:56:23.721Z,24.42
2023-06-09T21:58:50.296Z,24.42
2023-06-09T22:01:16.929Z,24.38
2023-06-09T22:03:43.447Z,24.34
2023-06-09T22:06:11.314Z,24.34
2023-06-09T22:08:39.354Z,24.31
2023-06-09T22:11:06.082Z,24.26
2023-06-09T22:13:33.570Z,24.23
2023-06-09T22:16:00.155Z,24.16
2023-06-09T22:18:26.643Z,24.12
2023-06-09T22:21:07.378Z,24.08
2023-06-09T22:23:33.929Z,23.99
2023-06-09T22:26:00.425Z,23.93
2023-06-09T22:28:26.993Z,23.87
2023-06-09T22:30:53.527Z,23.80
2023-06-09T22:33:19.996Z,23.75
2023-06-09T22:35:46.542Z,23.64
2023-06-09T22:38:13.191Z,23.56
2023-06-09T22:40:39.697Z,23.54
2023-06-09T22:43:06.453Z,23.53
2023-06-09T22:45:32.948Z,23.54
2023-06-09T22:47:59.559Z,23.56
2023-06-09T22:50:26.254Z,23.55
2023-06-09T22:52:52.807Z,23.50
2023-06-09T22:55:19.649Z,23.47
2023-06-09T22:57:48.243Z,23.42
2023-06-09T23:00:15.934Z,23.35
2023-06-09T23:02:42.984Z,23.29
2023-06-09T23:05:11.740Z,23.24
2023-06-09T23:07:38.631Z,23.20
2023-06-09T23:10:06.176Z,23.14
2023-06-09T23:12:32.792Z,23.02
2023-06-09T23:15:06.166Z,22.99
2023-06-09T23:17:34.200Z,23.03
2023-06-09T23:20:01.610Z,23.07
2023-06-09T23:22:30.853Z,23.08
2023-06-09T23:24:57.424Z,23.05
2023-06-09T23:27:24.009Z,23.03
2023-06-09T23:29:50.541Z,23.00
2023-06-09T23:32:17.092Z,22.96
2023-06-09T23:34:43.790Z,22.89
2023-06-09T23:37:11.092Z,22.87
2023-06-09T23:39:37.662Z,22.86
2023-06-09T23:42:04.297Z,22.85
2023-06-09T23:44:30.903Z,22.78
2023-06-09T23:46:57.429Z,22.73
2023-06-09T23:49:24.012Z,22.70
2023-06-09T23:51:50.607Z,22.69
2023-06-09T23:54:17.104Z,22.64
2023-06-09T23:56:45.662Z,22.60
2023-06-09T23:59:12.664Z,22.59
